Time;durP1;ratioP1;P1;durP2;ratioP2;P2;SDS_P1;SDS_P2;PMS_P1;PMS_P2;Temp;Humidity;BMP_temperature;BMP_pressure;BME280_temperature;BME280_humidity;BME280_pressure;Samples;Min_cycle;Max_cycle;Signal;HPM_P1;HPM_P2
2023/09/17 00:00:39;;;;;;;21.67;17.50;;;14.30;99.90;;;;;;4937145;29;20132;-70
2023/09/17 00:03:05;;;;;;;20.58;15.40;;;14.30;99.90;;;;;;4908521;28;190633;-70
2023/09/17 00:05:32;;;;;;;24.08;17.98;;;14.30;99.90;;;;;;4958035;28;20070;-70
2023/09/17 00:07:58;;;;;;;27.17;20.38;;;14.20;99.90;;;;;;4915369;28;20106;-71
2023/09/17 00:10:24;;;;;;;21.15;17.92;;;14.20;99.90;;;;;;4947625;28;20055;-69
2023/09/17 00:12:53;;;;;;;20.58;15.75;;;14.20;99.90;;;;;;4912860;28;21338;-70
2023/09/17 00:15:20;;;;;;;21.85;17.77;;;14.10;99.90;;;;;;4960122;28;20059;-70
2023/09/17 00:17:46;;;;;;;22.42;18.88;;;14.10;99.90;;;;;;4925932;28;20047;-70
2023/09/17 00:20:13;;;;;;;23.88;20.13;;;14.10;99.90;;;;;;4958445;28;20066;-71
2023/09/17 00:22:39;;;;;;;26.30;21.25;;;14.00;99.90;;;;;;4911574;28;22221;-72
2023/09/17 00:25:05;;;;;;;21.90;19.60;;;14.10;99.90;;;;;;4964677;28;20528;-70
2023/09/17 00:27:32;;;;;;;25.98;23.13;;;14.10;99.90;;;;;;4907077;28;20089;-69
2023/09/17 00:29:59;;;;;;;25.70;22.83;;;14.00;99.90;;;;;;4949158;28;20058;-70
2023/09/17 00:32:25;;;;;;;25.65;22.15;;;14.00;99.90;;;;;;4945171;28;20525;-71
2023/09/17 00:34:51;;;;;;;26.15;22.33;;;14.00;99.90;;;;;;4925249;28;20058;-71
2023/09/17 00:37:18;;;;;;;26.83;23.98;;;14.00;99.90;;;;;;4963232;28;20054;-71
2023/09/17 00:39:44;;;;;;;27.30;24.50;;;14.00;99.90;;;;;;4902311;28;20063;-70
2023/09/17 00:42:11;;;;;;;24.50;20.98;;;13.90;99.90;;;;;;4946950;28;20062;-70
2023/09/17 00:44:37;;;;;;;27.98;23.70;;;13.90;99.90;;;;;;4909084;28;20063;-71
2023/09/17 00:47:04;;;;;;;23.92;21.00;;;13.90;99.90;;;;;;4944824;28;20055;-70
2023/09/17 00:49:32;;;;;;;21.40;19.10;;;13.90;99.90;;;;;;4924362;28;20051;-71
2023/09/17 00:51:59;;;;;;;21.02;17.05;;;13.90;99.90;;;;;;4945829;28;20058;-70
2023/09/17 00:54:28;;;;;;;23.15;20.65;;;13.90;99.90;;;;;;4877658;28;194070;-70
2023/09/17 00:56:54;;;;;;;23.08;20.33;;;13.90;99.90;;;;;;4948647;28;20051;-70
2023/09/17 00:59:21;;;;;;;28.48;24.35;;;13.90;99.90;;;;;;4908700;28;20050;-70
2023/09/17 01:01:47;;;;;;;30.08;26.30;;;13.90;99.90;;;;;;4947651;28;20062;-69
2023/09/17 01:04:15;;;;;;;31.98;26.05;;;13.90;99.90;;;;;;4910244;28;20055;-69
2023/09/17 01:06:42;;;;;;;28.58;24.33;;;13.90;99.90;;;;;;4945913;28;20063;-70
2023/09/17 01:09:08;;;;;;;33.58;27.38;;;13.80;99.90;;;;;;4905216;28;20047;-70
2023/09/17 01:11:38;;;;;;;29.42;26.35;;;13.80;99.90;;;;;;4947014;28;20055;-69
2023/09/17 01:14:13;;;;;;;33.35;28.92;;;13.80;99.90;;;;;;4908295;28;20058;-70
2023/09/17 01:16:45;;;;;;;25.38;22.60;;;13.80;99.90;;;;;;4946861;28;20042;-70
2023/09/17 01:19:23;;;;;;;26.55;23.70;;;13.80;99.90;;;;;;4915523;28;20763;-71
2023/09/17 01:22:06;;;;;;;26.75;22.58;;;13.80;99.90;;;;;;4945450;28;20047;-70
2023/09/17 01:24:43;;;;;;;31.17;27.90;;;13.80;99.90;;;;;;4926153;28;20478;-71
2023/09/17 01:27:12;;;;;;;31.95;27.70;;;13.80;99.90;;;;;;4947783;28;20063;-69
2023/09/17 01:29:42;;;;;;;32.78;28.90;;;13.80;99.90;;;;;;4907264;28;20047;-69
2023/09/17 01:32:10;;;;;;;27.00;24.05;;;13.80;99.90;;;;;;4947066;28;20055;-71
2023/09/17 01:34:39;;;;;;;27.80;24.88;;;13.80;99.90;;;;;;4909520;28;20058;-71
2023/09/17 01:37:33;;;;;;;30.77;24.50;;;13.70;99.90;;;;;;4946404;28;20059;-71
2023/09/17 01:40:05;;;;;;;33.72;29.45;;;13.70;99.90;;;;;;4908426;28;20051;-70
2023/09/17 01:42:31;;;;;;;23.30;20.88;;;13.70;99.90;;;;;;4919585;28;20062;-68
2023/09/17 01:44:59;;;;;;;24.73;21.35;;;13.70;99.90;;;;;;4951423;28;20047;-69
2023/09/17 01:47:27;;;;;;;28.23;25.15;;;13.80;99.90;;;;;;4942507;28;20062;-68
2023/09/17 01:49:58;;;;;;;35.08;30.77;;;13.80;99.90;;;;;;4916248;28;20445;-70
2023/09/17 01:52:26;;;;;;;32.80;28.85;;;13.80;99.90;;;;;;4946616;28;20055;-69
2023/09/17 01:54:53;;;;;;;38.80;34.28;;;13.80;99.90;;;;;;4883867;28;20050;-69
2023/09/17 01:57:19;;;;;;;26.38;23.55;;;13.90;99.90;;;;;;4946062;28;20051;-69
2023/09/17 01:59:45;;;;;;;35.45;31.65;;;13.90;99.90;;;;;;4894495;28;20051;-70
2023/09/17 02:02:11;;;;;;;34.03;29.23;;;13.90;99.90;;;;;;4947827;28;20803;-70
2023/09/17 02:04:37;;;;;;;37.10;33.08;;;13.90;99.90;;;;;;4902304;28;20054;-72
2023/09/17 02:07:04;;;;;;;42.28;36.38;;;14.00;99.90;;;;;;4947406;28;20051;-70
2023/09/17 02:09:30;;;;;;;37.00;33.00;;;14.00;99.90;;;;;;4908576;28;20067;-71
2023/09/17 02:11:56;;;;;;;36.55;31.52;;;14.10;99.90;;;;;;4940976;28;20051;-70
2023/09/17 02:14:22;;;;;;;34.15;30.30;;;14.10;99.90;;;;;;4899397;28;20050;-71
2023/09/17 02:16:49;;;;;;;37.78;31.08;;;14.10;99.90;;;;;;4936576;28;20498;-70
2023/09/17 02:19:15;;;;;;;37.85;33.08;;;14.10;99.90;;;;;;4910460;28;20047;-71
2023/09/17 02:21:41;;;;;;;33.90;30.23;;;14.10;99.90;;;;;;4954596;28;20379;-71
2023/09/17 02:24:07;;;;;;;35.97;30.67;;;14.10;99.90;;;;;;4920121;28;20058;-71
2023/09/17 02:26:33;;;;;;;35.17;31.00;;;14.10;99.90;;;;;;4956755;28;20058;-71
2023/09/17 02:29:00;;;;;;;32.83;29.42;;;14.10;99.90;;;;;;4913737;28;20051;-69
2023/09/17 02:31:27;;;;;;;34.88;31.13;;;14.20;99.90;;;;;;4953310;28;20401;-70
2023/09/17 02:33:53;;;;;;;32.88;29.25;;;14.20;99.90;;;;;;4908705;28;20530;-70
2023/09/17 02:36:19;;;;;;;34.30;30.52;;;14.20;99.90;;;;;;4946956;28;20047;-70
2023/09/17 02:38:45;;;;;;;36.40;30.02;;;14.20;99.90;;;;;;4917099;28;20165;-71
2023/09/17 02:41:12;;;;;;;34.05;28.30;;;14.30;99.90;;;;;;4951621;28;20059;-71
2023/09/17 02:43:38;;;;;;;32.95;29.45;;;14.30;99.90;;;;;;4914773;28;20050;-70
2023/09/17 02:46:04;;;;;;;30.23;26.10;;;14.20;99.90;;;;;;4949004;28;20422;-69
2023/09/17 02:48:32;;;;;;;34.67;30.98;;;14.30;99.90;;;;;;4914027;28;20062;-70
2023/09/17 02:50:59;;;;;;;28.95;25.98;;;14.30;99.90;;;;;;4950730;28;20544;-70
2023/09/17 02:53:26;;;;;;;32.90;29.45;;;14.30;99.90;;;;;;4905173;28;57394;-70
2023/09/17 02:55:52;;;;;;;33.22;28.50;;;14.30;99.90;;;;;;4943645;28;20058;-69
2023/09/17 02:58:18;;;;;;;37.38;31.98;;;14.40;99.90;;;;;;4910686;28;20102;-69
2023/09/17 03:00:44;;;;;;;32.60;28.98;;;14.40;99.90;;;;;;4955670;28;20043;-70
2023/09/17 03:03:11;;;;;;;33.15;29.77;;;14.40;99.90;;;;;;4912065;28;20046;-70
2023/09/17 03:05:38;;;;;;;35.45;31.73;;;14.50;99.90;;;;;;4956111;28;20047;-69
2023/09/17 03:08:09;;;;;;;38.55;33.15;;;14.50;99.90;;;;;;4911473;28;20059;-72
2023/09/17 03:10:42;;;;;;;40.05;33.70;;;14.50;99.90;;;;;;4941507;28;20614;-69
2023/09/17 03:13:14;;;;;;;38.90;33.72;;;14.60;99.90;;;;;;4906638;28;20055;-70
2023/09/17 03:15:41;;;;;;;33.85;30.25;;;14.60;99.90;;;;;;4949611;28;20509;-69
2023/09/17 03:18:08;;;;;;;40.60;34.85;;;14.60;99.90;;;;;;4911664;28;20054;-69
2023/09/17 03:20:34;;;;;;;36.47;32.42;;;14.60;99.90;;;;;;4935964;28;20086;-70
2023/09/17 03:23:04;;;;;;;35.42;30.15;;;14.60;99.90;;;;;;4911142;28;20053;-69
2023/09/17 03:25:31;;;;;;;38.70;34.42;;;14.70;99.90;;;;;;4955262;28;20536;-71
2023/09/17 03:27:59;;;;;;;42.13;34.40;;;14.70;99.90;;;;;;4914117;28;20063;-70
2023/09/17 03:30:27;;;;;;;42.15;35.03;;;14.80;99.90;;;;;;4960546;28;20078;-70
2023/09/17 03:32:53;;;;;;;45.40;36.38;;;14.70;99.90;;;;;;4907336;28;20061;-70
2023/09/17 03:35:19;;;;;;;40.97;33.90;;;14.80;99.90;;;;;;4938023;29;20062;-70
2023/09/17 03:37:46;;;;;;;42.63;35.03;;;14.80;99.90;;;;;;4910643;28;20055;-69
2023/09/17 03:40:14;;;;;;;33.13;29.23;;;14.90;99.90;;;;;;4943410;28;20051;-68
2023/09/17 03:42:41;;;;;;;39.30;32.95;;;14.90;99.90;;;;;;4907653;28;20487;-70
2023/09/17 03:45:10;;;;;;;35.53;31.58;;;14.90;99.90;;;;;;4962281;28;20059;-71
2023/09/17 03:47:37;;;;;;;40.20;35.10;;;15.00;99.90;;;;;;4894877;28;20047;-71
2023/09/17 03:50:04;;;;;;;33.92;30.17;;;15.00;99.90;;;;;;4954319;28;20541;-72
2023/09/17 03:52:32;;;;;;;41.45;36.03;;;15.00;99.90;;;;;;4930847;28;20063;-69
2023/09/17 03:54:59;;;;;;;43.05;35.92;;;15.00;99.90;;;;;;4923886;28;197789;-69
2023/09/17 03:57:25;;;;;;;42.38;34.13;;;15.10;99.90;;;;;;4947012;28;20058;-70
2023/09/17 03:59:51;;;;;;;44.22;35.03;;;15.20;99.90;;;;;;4928746;28;20039;-70
2023/09/17 04:02:18;;;;;;;47.55;37.47;;;15.20;99.90;;;;;;4958567;28;20059;-70
2023/09/17 04:04:44;;;;;;;42.42;33.80;;;15.20;99.90;;;;;;4906977;28;20519;-69
2023/09/17 04:07:10;;;;;;;38.95;33.50;;;15.30;99.90;;;;;;4946073;28;20055;-69
2023/09/17 04:09:36;;;;;;;47.28;37.97;;;15.30;99.90;;;;;;4924822;28;20066;-67
2023/09/17 04:12:03;;;;;;;42.25;35.47;;;15.30;99.90;;;;;;4948428;28;20610;-68
2023/09/17 04:14:33;;;;;;;44.85;38.45;;;15.40;99.90;;;;;;4924005;28;20069;-68
2023/09/17 04:17:02;;;;;;;40.83;34.35;;;15.40;99.90;;;;;;4951653;28;20051;-69
2023/09/17 04:19:29;;;;;;;44.45;34.38;;;15.40;99.90;;;;;;4891997;28;20066;-68
2023/09/17 04:21:56;;;;;;;37.47;31.83;;;15.50;99.90;;;;;;4947547;28;20429;-68
2023/09/17 04:24:22;;;;;;;37.53;32.47;;;15.40;99.90;;;;;;4892894;28;20047;-68
2023/09/17 04:26:48;;;;;;;40.88;35.80;;;15.50;99.90;;;;;;4947862;28;20047;-68
2023/09/17 04:29:14;;;;;;;46.58;36.97;;;15.50;99.90;;;;;;4895561;28;20434;-68
2023/09/17 04:31:41;;;;;;;41.92;35.13;;;15.50;99.90;;;;;;4953158;28;20055;-68
2023/09/17 04:34:07;;;;;;;43.80;36.35;;;15.50;99.90;;;;;;4910992;28;20055;-69
2023/09/17 04:36:33;;;;;;;42.03;33.50;;;15.50;99.90;;;;;;4944668;28;20066;-67
2023/09/17 04:38:59;;;;;;;33.72;29.65;;;15.50;99.90;;;;;;4924431;28;20061;-69
2023/09/17 04:41:26;;;;;;;37.58;31.30;;;15.50;99.90;;;;;;4956370;28;20058;-67
2023/09/17 04:43:52;;;;;;;33.72;30.08;;;15.50;99.90;;;;;;4908057;28;20055;-69
2023/09/17 04:46:18;;;;;;;44.97;35.72;;;15.60;99.90;;;;;;4925793;29;20043;-68
2023/09/17 04:48:44;;;;;;;39.13;33.38;;;15.60;99.90;;;;;;4909290;28;20055;-68
2023/09/17 04:51:15;;;;;;;43.30;36.33;;;15.60;99.90;;;;;;4944260;28;20074;-69
2023/09/17 04:53:42;;;;;;;46.15;36.55;;;15.60;99.90;;;;;;4902476;28;178021;-67
2023/09/17 04:56:08;;;;;;;39.72;31.65;;;15.60;99.90;;;;;;4944538;28;20043;-68
2023/09/17 04:58:34;;;;;;;41.90;35.38;;;15.60;99.90;;;;;;4911003;28;20054;-68
2023/09/17 05:01:00;;;;;;;46.35;38.33;;;15.60;99.90;;;;;;4945936;28;20532;-68
2023/09/17 05:03:26;;;;;;;42.42;34.17;;;15.60;99.90;;;;;;4908724;28;20047;-68
2023/09/17 05:05:52;;;;;;;47.30;37.10;;;15.60;99.90;;;;;;4947312;28;20047;-69
2023/09/17 05:08:19;;;;;;;48.25;36.03;;;15.60;99.90;;;;;;4913599;28;20062;-70
2023/09/17 05:10:45;;;;;;;40.60;34.60;;;15.60;99.90;;;;;;4934758;28;20059;-70
2023/09/17 05:13:11;;;;;;;45.88;36.95;;;15.60;99.90;;;;;;4907594;28;20047;-70
2023/09/17 05:15:38;;;;;;;41.13;34.22;;;15.60;99.90;;;;;;4938751;28;20058;-70
2023/09/17 05:18:09;;;;;;;37.67;32.55;;;15.60;99.90;;;;;;4916726;28;20058;-70
2023/09/17 05:20:43;;;;;;;47.72;36.97;;;15.60;99.90;;;;;;4945539;28;20055;-70
2023/09/17 05:23:13;;;;;;;41.50;35.95;;;15.60;99.90;;;;;;4919962;28;195357;-68
2023/09/17 05:25:39;;;;;;;40.10;34.95;;;15.60;99.90;;;;;;4949373;28;20078;-70
2023/09/17 05:28:09;;;;;;;44.78;37.38;;;15.60;99.90;;;;;;4918240;28;20548;-70
2023/09/17 05:30:35;;;;;;;40.05;34.05;;;15.60;99.90;;;;;;4957932;28;20039;-69
2023/09/17 05:33:03;;;;;;;43.55;37.60;;;15.60;99.90;;;;;;4910725;28;20047;-68
2023/09/17 05:35:31;;;;;;;46.60;36.60;;;15.70;99.90;;;;;;4918531;28;20055;-69
2023/09/17 05:38:06;;;;;;;39.33;33.47;;;15.60;99.90;;;;;;4910608;28;20063;-70
2023/09/17 05:40:32;;;;;;;45.13;36.63;;;15.70;99.90;;;;;;4943326;28;20649;-69
2023/09/17 05:42:58;;;;;;;41.20;32.60;;;15.70;99.90;;;;;;4913286;28;20043;-69
2023/09/17 05:45:26;;;;;;;48.17;38.45;;;15.70;99.90;;;;;;4946148;28;20047;-68
2023/09/17 05:47:52;;;;;;;50.72;39.28;;;15.70;99.90;;;;;;4909381;28;20061;-69
2023/09/17 05:50:18;;;;;;;47.83;36.63;;;15.80;99.90;;;;;;4947518;28;20059;-67
2023/09/17 05:52:44;;;;;;;49.72;39.35;;;15.80;99.90;;;;;;4893467;28;132708;-68
2023/09/17 05:55:11;;;;;;;40.28;34.65;;;15.80;99.90;;;;;;4945920;28;20597;-67
2023/09/17 05:57:37;;;;;;;45.38;38.17;;;15.80;99.90;;;;;;4899415;28;20047;-68
2023/09/17 06:00:04;;;;;;;45.05;35.72;;;15.80;99.90;;;;;;4963225;28;20062;-66
2023/09/17 06:02:31;;;;;;;45.15;36.55;;;15.90;99.90;;;;;;4921872;28;20051;-65
2023/09/17 06:04:57;;;;;;;45.38;37.63;;;15.90;99.90;;;;;;4921073;29;20054;-67
2023/09/17 06:07:23;;;;;;;46.53;37.58;;;15.90;99.90;;;;;;4946337;28;20494;-66
2023/09/17 06:09:49;;;;;;;50.10;38.85;;;15.90;99.90;;;;;;4910675;28;20059;-69
2023/09/17 06:12:15;;;;;;;48.17;39.92;;;16.00;99.90;;;;;;4943152;28;20051;-67
2023/09/17 06:14:42;;;;;;;43.00;37.60;;;16.00;99.90;;;;;;4906248;28;20054;-67
2023/09/17 06:17:08;;;;;;;47.60;39.35;;;16.00;99.90;;;;;;4943711;28;20055;-70
2023/09/17 06:19:37;;;;;;;44.33;38.25;;;16.00;99.90;;;;;;4928244;28;20058;-69
2023/09/17 06:22:13;;;;;;;49.28;40.33;;;16.00;99.90;;;;;;4953972;28;20063;-67
2023/09/17 06:24:39;;;;;;;45.90;37.53;;;16.10;99.90;;;;;;4916801;28;20054;-66
2023/09/17 06:27:05;;;;;;;47.38;39.20;;;16.10;99.90;;;;;;4929969;29;20047;-67
2023/09/17 06:29:32;;;;;;;47.63;38.55;;;16.10;99.90;;;;;;4907775;28;20059;-68
2023/09/17 06:31:59;;;;;;;43.78;37.63;;;16.20;99.90;;;;;;4952794;28;20047;-69
2023/09/17 06:34:29;;;;;;;49.88;40.33;;;16.20;99.90;;;;;;4918652;28;20039;-71
2023/09/17 06:36:59;;;;;;;48.35;39.15;;;16.30;99.90;;;;;;4972513;28;20058;-70
2023/09/17 06:39:28;;;;;;;43.03;37.78;;;16.40;99.90;;;;;;4916241;28;20051;-69
2023/09/17 06:41:56;;;;;;;47.17;38.33;;;16.40;99.90;;;;;;4971256;28;20054;-66
2023/09/17 06:44:25;;;;;;;43.70;38.03;;;16.50;99.90;;;;;;4933117;28;20049;-70
2023/09/17 06:46:51;;;;;;;46.97;38.17;;;16.50;99.90;;;;;;4956542;28;20055;-69
2023/09/17 06:49:18;;;;;;;43.40;36.92;;;16.50;99.90;;;;;;4911604;28;20055;-69
2023/09/17 06:51:44;;;;;;;44.90;37.33;;;16.60;99.90;;;;;;4953965;28;20062;-70
2023/09/17 06:54:11;;;;;;;46.58;37.90;;;16.70;99.90;;;;;;4875978;28;204752;-69
2023/09/17 06:56:37;;;;;;;38.47;34.25;;;16.80;99.90;;;;;;4945091;28;20078;-70
2023/09/17 06:59:03;;;;;;;44.03;35.88;;;16.80;99.90;;;;;;4919125;28;20063;-69
2023/09/17 07:01:29;;;;;;;37.58;33.42;;;16.90;99.90;;;;;;4951340;28;20067;-70
2023/09/17 07:03:55;;;;;;;40.78;35.45;;;17.10;99.90;;;;;;4907784;28;20046;-69
2023/09/17 07:06:22;;;;;;;37.85;32.47;;;17.20;99.90;;;;;;4949098;28;20047;-69
2023/09/17 07:08:48;;;;;;;36.22;31.45;;;17.30;99.90;;;;;;4921861;28;20603;-69
2023/09/17 07:11:14;;;;;;;35.05;31.20;;;17.30;99.90;;;;;;4954399;28;20047;-69
2023/09/17 07:13:40;;;;;;;34.17;30.10;;;17.40;99.90;;;;;;4910368;28;20055;-68
2023/09/17 07:16:06;;;;;;;39.20;31.02;;;17.50;99.90;;;;;;4946876;28;20062;-69
2023/09/17 07:18:34;;;;;;;35.15;31.38;;;17.60;99.90;;;;;;4912413;28;20054;-69
2023/09/17 07:21:00;;;;;;;32.70;29.20;;;17.70;99.90;;;;;;4952947;28;20058;-69
2023/09/17 07:23:26;;;;;;;32.88;28.83;;;17.70;99.90;;;;;;4915705;28;20522;-69
2023/09/17 07:25:52;;;;;;;31.85;27.73;;;17.70;99.90;;;;;;4956029;28;20066;-71
2023/09/17 07:28:20;;;;;;;34.85;29.40;;;17.70;99.90;;;;;;4919989;28;20067;-69
2023/09/17 07:30:46;;;;;;;31.30;27.98;;;17.70;99.90;;;;;;4951894;28;20055;-70
2023/09/17 07:33:12;;;;;;;32.78;27.92;;;17.70;99.90;;;;;;4912013;28;20470;-69
2023/09/17 07:35:39;;;;;;;30.92;26.65;;;17.60;99.90;;;;;;4936259;28;20391;-69
2023/09/17 07:38:05;;;;;;;31.00;25.40;;;17.70;99.90;;;;;;4894594;28;20422;-69
2023/09/17 07:40:32;;;;;;;30.70;25.73;;;17.60;99.90;;;;;;4944393;28;20150;-69
2023/09/17 07:43:00;;;;;;;31.02;25.33;;;17.60;99.90;;;;;;4911175;28;20047;-70
2023/09/17 07:45:27;;;;;;;29.73;26.52;;;17.70;99.90;;;;;;4943725;28;20098;-70
2023/09/17 07:47:53;;;;;;;28.95;24.52;;;17.70;99.90;;;;;;4889917;28;20083;-71
2023/09/17 07:50:19;;;;;;;30.67;25.92;;;17.70;99.90;;;;;;4936574;29;20051;-69
2023/09/17 07:52:45;;;;;;;29.45;26.25;;;17.70;99.90;;;;;;4894818;28;206997;-69
2023/09/17 07:55:11;;;;;;;32.55;27.05;;;17.70;99.90;;;;;;4944120;28;20058;-68
2023/09/17 07:57:37;;;;;;;29.05;25.90;;;17.70;99.90;;;;;;4909180;28;20054;-68
2023/09/17 08:00:06;;;;;;;30.00;26.75;;;17.80;99.90;;;;;;4928865;29;20067;-70
2023/09/17 08:02:32;;;;;;;31.27;26.35;;;17.80;99.90;;;;;;4916642;28;20063;-69
2023/09/17 08:04:58;;;;;;;31.25;26.95;;;17.80;99.90;;;;;;4927707;28;20051;-70
2023/09/17 08:07:24;;;;;;;29.15;25.70;;;17.80;99.90;;;;;;4963580;28;20042;-69
2023/09/17 08:09:50;;;;;;;31.55;26.15;;;17.90;99.90;;;;;;4911486;28;20058;-69
2023/09/17 08:12:16;;;;;;;31.80;26.77;;;17.90;99.90;;;;;;4945766;28;20070;-68
2023/09/17 08:14:46;;;;;;;31.00;26.90;;;18.00;99.90;;;;;;4919659;28;20051;-68
2023/09/17 08:17:13;;;;;;;28.23;25.13;;;18.00;99.90;;;;;;4951142;28;20059;-69
2023/09/17 08:19:39;;;;;;;28.70;25.60;;;18.00;99.90;;;;;;4903876;28;20047;-69
2023/09/17 08:22:05;;;;;;;30.13;26.13;;;18.00;99.90;;;;;;4966083;28;20421;-68
2023/09/17 08:24:31;;;;;;;30.08;26.38;;;18.00;99.90;;;;;;4900011;28;21362;-69
2023/09/17 08:26:57;;;;;;;33.00;25.30;;;18.00;99.90;;;;;;4952164;28;20058;-69
2023/09/17 08:29:23;;;;;;;32.38;25.20;;;18.00;99.90;;;;;;4911049;28;20047;-69
2023/09/17 08:31:49;;;;;;;28.77;25.58;;;18.00;99.90;;;;;;4956575;28;20062;-70
2023/09/17 08:34:15;;;;;;;30.75;26.83;;;18.00;99.90;;;;;;4928657;28;20315;-70
2023/09/17 08:36:42;;;;;;;28.60;25.50;;;18.00;99.90;;;;;;4953081;28;20054;-70
2023/09/17 08:39:08;;;;;;;27.58;24.50;;;18.00;99.90;;;;;;4908850;28;20051;-69
2023/09/17 08:41:35;;;;;;;30.67;25.90;;;18.10;99.90;;;;;;4959576;28;20063;-68
2023/09/17 08:44:05;;;;;;;30.48;26.13;;;18.10;99.90;;;;;;4913617;28;20058;-70
2023/09/17 08:46:32;;;;;;;28.90;25.58;;;18.20;99.90;;;;;;4947267;28;20505;-70
2023/09/17 08:49:01;;;;;;;28.50;25.08;;;18.30;99.90;;;;;;4910512;28;20055;-69
2023/09/17 08:51:32;;;;;;;29.02;25.92;;;18.30;99.90;;;;;;4948416;28;20620;-69
2023/09/17 08:54:02;;;;;;;30.50;26.08;;;18.30;99.90;;;;;;4894606;28;191900;-69
2023/09/17 08:56:31;;;;;;;29.58;25.42;;;18.40;99.90;;;;;;4944104;28;20055;-70
2023/09/17 08:59:03;;;;;;;28.70;25.55;;;18.40;99.90;;;;;;4918578;28;20045;-70
2023/09/17 09:01:31;;;;;;;33.13;26.92;;;18.40;99.90;;;;;;4951706;28;20063;-68
2023/09/17 09:03:57;;;;;;;34.13;26.35;;;18.40;99.90;;;;;;4916640;28;20062;-69
2023/09/17 09:06:26;;;;;;;28.50;25.17;;;18.40;99.90;;;;;;4953680;28;20062;-69
2023/09/17 09:08:53;;;;;;;29.75;26.35;;;18.30;99.90;;;;;;4911797;28;20062;-69
2023/09/17 09:11:19;;;;;;;30.15;26.10;;;18.30;99.90;;;;;;4952226;28;20078;-69
2023/09/17 09:13:46;;;;;;;30.48;26.30;;;18.20;99.90;;;;;;4914477;28;20043;-70
2023/09/17 09:16:13;;;;;;;29.70;26.00;;;18.20;99.90;;;;;;4951476;28;20054;-69
2023/09/17 09:18:39;;;;;;;27.45;24.42;;;18.20;99.90;;;;;;4906302;28;20058;-69
2023/09/17 09:21:08;;;;;;;27.08;24.23;;;18.10;99.90;;;;;;4945179;28;20489;-69
2023/09/17 09:23:35;;;;;;;28.75;25.60;;;18.10;99.90;;;;;;4913281;28;20054;-68
2023/09/17 09:26:02;;;;;;;30.48;25.80;;;18.20;99.90;;;;;;4949755;28;20051;-69
2023/09/17 09:28:31;;;;;;;29.83;25.65;;;18.20;99.90;;;;;;4909703;28;20051;-69
2023/09/17 09:30:57;;;;;;;29.40;24.77;;;18.30;99.90;;;;;;4936629;28;20421;-69
2023/09/17 09:33:24;;;;;;;28.95;24.40;;;18.40;99.90;;;;;;4908083;28;20040;-72
2023/09/17 09:35:50;;;;;;;30.08;24.52;;;18.50;99.90;;;;;;4946065;28;20086;-69
2023/09/17 09:38:18;;;;;;;27.13;23.92;;;18.60;99.90;;;;;;4913792;28;20054;-70
2023/09/17 09:40:45;;;;;;;28.33;23.77;;;18.70;99.90;;;;;;4942149;28;20059;-69
2023/09/17 09:43:30;;;;;;;26.02;23.17;;;18.90;99.90;;;;;;4906468;28;20043;-69
2023/09/17 09:46:04;;;;;;;26.02;22.30;;;19.00;99.90;;;;;;4945757;28;20055;-70
2023/09/17 09:48:39;;;;;;;29.13;22.45;;;19.00;99.90;;;;;;4912497;28;20065;-71
2023/09/17 09:51:06;;;;;;;24.73;21.20;;;19.00;99.90;;;;;;4943124;28;20062;-71
2023/09/17 09:53:32;;;;;;;26.48;21.67;;;19.10;99.90;;;;;;4912382;28;120906;-70
2023/09/17 09:55:59;;;;;;;25.25;20.50;;;19.10;99.90;;;;;;4954227;28;20051;-70
2023/09/17 09:58:25;;;;;;;25.08;21.23;;;19.20;99.90;;;;;;4909422;28;20094;-69
2023/09/17 10:00:53;;;;;;;24.35;21.00;;;19.20;99.90;;;;;;4946169;28;20059;-70
2023/09/17 10:03:20;;;;;;;22.73;19.65;;;19.30;99.90;;;;;;4903617;28;256587;-70
2023/09/17 10:05:47;;;;;;;22.73;20.08;;;19.30;99.90;;;;;;4953660;28;20058;-71
2023/09/17 10:08:17;;;;;;;23.40;19.20;;;19.30;99.90;;;;;;4912838;28;20043;-70
2023/09/17 10:10:43;;;;;;;22.73;18.27;;;19.40;99.90;;;;;;4955277;28;20735;-71
2023/09/17 10:13:12;;;;;;;23.67;18.00;;;19.40;99.90;;;;;;4910875;28;20050;-71
2023/09/17 10:15:41;;;;;;;21.40;17.02;;;19.40;99.90;;;;;;4950134;28;20043;-70
2023/09/17 10:18:12;;;;;;;20.15;17.15;;;19.40;99.90;;;;;;4910311;28;20066;-69
2023/09/17 10:20:43;;;;;;;22.95;17.92;;;19.50;99.90;;;;;;4940700;28;20062;-70
2023/09/17 10:23:12;;;;;;;23.45;17.23;;;19.60;99.90;;;;;;4908792;28;20058;-70
2023/09/17 10:25:41;;;;;;;26.30;17.67;;;19.70;99.90;;;;;;4953496;28;20058;-71
2023/09/17 10:28:11;;;;;;;20.15;17.23;;;19.80;99.90;;;;;;4903634;28;20055;-70
2023/09/17 10:30:38;;;;;;;20.37;15.87;;;19.80;99.90;;;;;;4932651;28;20059;-70
2023/09/17 10:33:07;;;;;;;19.90;15.45;;;19.70;99.90;;;;;;4910347;28;20055;-71
2023/09/17 10:35:34;;;;;;;21.35;16.65;;;19.60;99.90;;;;;;4940946;28;20775;-70
2023/09/17 10:38:03;;;;;;;20.80;17.27;;;19.60;99.90;;;;;;4904168;28;20047;-69
2023/09/17 10:40:30;;;;;;;24.05;17.95;;;19.60;99.90;;;;;;4943624;28;20070;-70
2023/09/17 10:43:01;;;;;;;21.58;18.88;;;19.50;99.90;;;;;;4888748;28;20587;-70
2023/09/17 10:45:32;;;;;;;23.08;19.35;;;19.40;99.90;;;;;;4942086;28;20088;-72
2023/09/17 10:48:01;;;;;;;27.83;20.58;;;19.30;99.90;;;;;;4906773;28;20064;-73
2023/09/17 10:50:29;;;;;;;27.67;21.02;;;19.20;99.90;;;;;;4939295;28;20425;-71
2023/09/17 10:52:55;;;;;;;25.80;21.23;;;19.20;99.90;;;;;;4910952;28;80756;-71
2023/09/17 10:55:23;;;;;;;24.58;20.40;;;19.30;99.90;;;;;;4924492;29;20051;-72
2023/09/17 10:58:03;;;;;;;27.85;22.70;;;19.30;99.90;;;;;;4904897;28;20062;-72
2023/09/17 11:00:33;;;;;;;26.97;22.23;;;19.40;99.90;;;;;;4935479;28;20058;-74
2023/09/17 11:03:01;;;;;;;26.35;22.63;;;19.80;99.90;;;;;;4910908;28;20062;-72
2023/09/17 11:05:30;;;;;;;25.52;22.15;;;19.90;99.90;;;;;;4955668;28;20070;-73
2023/09/17 11:08:01;;;;;;;24.75;21.40;;;20.20;99.90;;;;;;4907287;28;20121;-73
2023/09/17 11:10:29;;;;;;;23.08;20.35;;;20.90;99.90;;;;;;4936694;28;20078;-73
2023/09/17 11:12:55;;;;;;;23.33;19.45;;;21.40;99.90;;;;;;4910839;28;20058;-72
2023/09/17 11:15:22;;;;;;;23.33;18.88;;;21.30;99.90;;;;;;4959717;28;20047;-73
2023/09/17 11:17:48;;;;;;;23.02;18.85;;;21.10;99.90;;;;;;4912678;28;20506;-73
2023/09/17 11:20:20;;;;;;;23.00;18.73;;;20.90;99.90;;;;;;4957291;28;20074;-72
2023/09/17 11:22:52;;;;;;;21.60;18.77;;;20.70;99.90;;;;;;4913181;28;20402;-72
2023/09/17 11:25:33;;;;;;;23.75;19.05;;;20.50;99.90;;;;;;4945706;28;20549;-70
2023/09/17 11:28:11;;;;;;;23.23;19.52;;;20.30;99.90;;;;;;4911488;28;20051;-71
2023/09/17 11:31:04;;;;;;;23.65;20.27;;;20.20;99.90;;;;;;4945569;28;20060;-71
2023/09/17 11:33:32;;;;;;;27.95;24.10;;;20.20;99.90;;;;;;4905903;28;20047;-73
2023/09/17 11:36:00;;;;;;;28.20;25.17;;;20.10;99.90;;;;;;4939163;28;20058;-73
2023/09/17 11:38:29;;;;;;;32.67;27.77;;;20.50;99.90;;;;;;4914050;28;20047;-74
2023/09/17 11:41:09;;;;;;;25.15;21.40;;;21.60;99.90;;;;;;4942765;28;20390;-75
2023/09/17 11:43:38;;;;;;;22.92;20.13;;;22.50;99.90;;;;;;4900452;28;20055;-73
2023/09/17 11:46:07;;;;;;;20.90;17.60;;;23.40;99.90;;;;;;4924689;29;20051;-73
2023/09/17 11:48:36;;;;;;;19.30;16.23;;;23.90;99.90;;;;;;4911647;28;20051;-73
2023/09/17 11:51:20;;;;;;;19.67;17.05;;;24.30;99.90;;;;;;4925121;29;20055;-73
2023/09/17 11:53:58;;;;;;;19.98;15.23;;;24.70;99.90;;;;;;4890374;28;120084;-74
2023/09/17 11:56:29;;;;;;;18.65;14.70;;;25.20;99.90;;;;;;4943241;28;20653;-75
2023/09/17 11:59:05;;;;;;;19.77;14.77;;;25.30;99.90;;;;;;4922181;28;20117;-73
2023/09/17 12:01:35;;;;;;;19.95;15.00;;;25.30;99.90;;;;;;4951892;28;20067;-73
2023/09/17 12:04:06;;;;;;;20.75;15.38;;;24.70;99.90;;;;;;4892115;28;20039;-72
2023/09/17 12:06:49;;;;;;;18.00;14.80;;;24.40;99.90;;;;;;4947069;28;20686;-71
2023/09/17 12:09:20;;;;;;;17.73;13.55;;;24.10;99.90;;;;;;4912138;28;20410;-71
2023/09/17 12:11:47;;;;;;;20.58;14.43;;;23.90;99.90;;;;;;4947960;28;20047;-71
2023/09/17 12:14:15;;;;;;;18.88;14.40;;;23.60;99.90;;;;;;4892745;28;20054;-71
2023/09/17 12:16:42;;;;;;;19.00;13.57;;;23.50;99.90;;;;;;4938982;28;20047;-71
2023/09/17 12:19:08;;;;;;;18.08;13.23;;;23.30;99.90;;;;;;4910077;28;20421;-72
2023/09/17 12:21:39;;;;;;;15.43;13.70;;;23.20;99.90;;;;;;4946465;28;20626;-72
2023/09/17 12:24:06;;;;;;;21.05;14.50;;;23.20;99.90;;;;;;4899136;28;20058;-73
2023/09/17 12:26:56;;;;;;;17.83;13.65;;;23.40;99.90;;;;;;4947181;28;20063;-74
2023/09/17 12:29:22;;;;;;;19.55;13.63;;;23.40;99.90;;;;;;4918959;28;20656;-72